createdAt,value
2018-10-06T00:00:51.349Z,0.00
2018-10-06T00:01:51.345Z,0.00
2018-10-06T00:02:51.343Z,0.00
2018-10-06T00:03:51.335Z,0.00
2018-10-06T00:04:51.330Z,0.00
2018-10-06T00:05:51.321Z,0.00
2018-10-06T00:06:51.315Z,0.00
2018-10-06T00:07:51.309Z,0.00
2018-10-06T00:08:51.309Z,0.00
2018-10-06T00:09:51.297Z,0.00
2018-10-06T00:10:51.292Z,0.00
2018-10-06T00:11:51.281Z,0.00
2018-10-06T00:12:51.283Z,0.00
2018-10-06T00:13:51.270Z,0.00
2018-10-06T00:14:51.263Z,0.00
2018-10-06T00:15:51.266Z,0.00
2018-10-06T00:16:51.256Z,0.00
2018-10-06T00:17:51.251Z,0.00
2018-10-06T00:18:51.250Z,0.00
2018-10-06T00:19:51.240Z,0.00
2018-10-06T00:20:51.233Z,0.00
2018-10-06T00:21:51.223Z,0.00
2018-10-06T00:22:51.217Z,0.00
2018-10-06T00:23:51.218Z,0.00
2018-10-06T00:24:51.211Z,0.00
2018-10-06T00:25:51.206Z,0.00
2018-10-06T00:26:51.199Z,0.00
2018-10-06T00:27:51.200Z,0.00
2018-10-06T00:28:51.188Z,0.00
2018-10-06T00:29:51.185Z,0.00
2018-10-06T00:30:51.175Z,0.00
2018-10-06T00:31:51.168Z,0.00
2018-10-06T00:32:51.167Z,0.00
2018-10-06T00:33:51.155Z,0.00
2018-10-06T00:34:51.157Z,0.00
2018-10-06T00:35:51.140Z,0.00
2018-10-06T00:36:51.138Z,0.00
2018-10-06T00:37:51.148Z,0.00
2018-10-06T00:38:51.135Z,0.00
2018-10-06T00:39:51.123Z,0.00
2018-10-06T00:40:51.119Z,0.00
2018-10-06T00:41:51.104Z,0.00
2018-10-06T00:42:51.102Z,0.00
2018-10-06T00:43:51.091Z,0.00
2018-10-06T00:44:51.089Z,0.00
2018-10-06T00:45:51.081Z,0.00
2018-10-06T00:46:51.078Z,0.00
2018-10-06T00:47:51.073Z,0.00
2018-10-06T00:48:51.068Z,0.00
2018-10-06T00:49:51.062Z,0.00
2018-10-06T00:50:51.055Z,0.00
2018-10-06T00:51:51.052Z,0.00
2018-10-06T00:52:51.040Z,0.00
2018-10-06T00:53:51.035Z,0.00
2018-10-06T00:54:51.034Z,0.00
2018-10-06T00:55:51.023Z,0.00
2018-10-06T00:56:51.018Z,0.00
2018-10-06T00:57:51.013Z,0.00
2018-10-06T00:58:51.007Z,0.00
2018-10-06T00:59:50.999Z,0.00
2018-10-06T01:00:50.988Z,0.00
2018-10-06T01:01:50.989Z,0.00
2018-10-06T01:02:50.982Z,0.00
2018-10-06T01:03:50.974Z,0.00
2018-10-06T01:04:50.969Z,0.00
2018-10-06T01:05:50.966Z,0.00
2018-10-06T01:06:50.958Z,0.00
2018-10-06T01:07:50.946Z,0.00
2018-10-06T01:08:50.940Z,0.00
2018-10-06T01:09:50.934Z,0.00
2018-10-06T01:10:50.932Z,0.00
2018-10-06T01:11:50.928Z,0.00
2018-10-06T01:12:50.923Z,0.00
2018-10-06T01:13:50.914Z,0.00
2018-10-06T01:14:50.907Z,0.00
2018-10-06T01:15:50.895Z,0.00
2018-10-06T01:16:50.891Z,0.00
2018-10-06T01:17:50.886Z,0.00
2018-10-06T01:18:50.884Z,0.00
2018-10-06T01:19:50.877Z,0.00
2018-10-06T01:20:50.865Z,0.00
2018-10-06T01:21:50.863Z,0.00
2018-10-06T01:22:50.857Z,0.00
2018-10-06T01:23:50.851Z,0.00
2018-10-06T01:24:50.840Z,0.00
2018-10-06T01:25:50.837Z,0.00
2018-10-06T01:26:50.830Z,0.00
2018-10-06T01:27:50.826Z,0.00
2018-10-06T01:28:50.816Z,0.00
2018-10-06T01:29:50.813Z,0.00
2018-10-06T01:30:50.803Z,0.00
2018-10-06T01:31:50.803Z,0.00
2018-10-06T01:32:50.792Z,0.00
2018-10-06T01:33:50.785Z,0.00
2018-10-06T01:34:50.801Z,0.00
2018-10-06T01:35:50.773Z,0.00
2018-10-06T01:36:50.767Z,0.00
2018-10-06T01:37:50.764Z,0.00
2018-10-06T01:38:50.758Z,0.00
2018-10-06T01:39:50.750Z,0.00
2018-10-06T01:40:50.746Z,0.00
2018-10-06T01:41:50.736Z,0.00
2018-10-06T01:42:50.731Z,0.00
2018-10-06T01:43:50.725Z,0.00
2018-10-06T01:44:50.719Z,0.00
2018-10-06T01:45:50.713Z,0.00
2018-10-06T01:46:50.705Z,0.00
2018-10-06T01:47:50.697Z,0.00
2018-10-06T01:48:50.694Z,0.00
2018-10-06T01:49:50.732Z,0.00
2018-10-06T01:50:50.725Z,0.00
2018-10-06T01:51:50.676Z,0.00
2018-10-06T01:52:50.669Z,0.00
2018-10-06T01:53:50.665Z,0.00
2018-10-06T01:54:50.654Z,0.00
2018-10-06T01:55:50.650Z,0.00
2018-10-06T01:56:50.642Z,0.00
2018-10-06T01:57:50.647Z,0.00
2018-10-06T01:58:50.633Z,0.00
2018-10-06T01:59:50.630Z,0.00
2018-10-06T02:00:50.621Z,0.00
2018-10-06T02:01:50.615Z,0.00
2018-10-06T02:02:50.606Z,0.00
2018-10-06T02:03:50.600Z,0.00
2018-10-06T02:04:50.592Z,0.00
2018-10-06T02:05:50.592Z,0.00
2018-10-06T02:06:50.582Z,0.00
2018-10-06T02:07:50.578Z,0.00
2018-10-06T02:08:50.565Z,0.00
2018-10-06T02:09:50.565Z,0.00
2018-10-06T02:10:50.552Z,0.00
2018-10-06T02:11:50.549Z,0.00
2018-10-06T02:12:50.547Z,0.00
2018-10-06T02:13:50.532Z,0.00
2018-10-06T02:14:50.532Z,0.00
2018-10-06T02:15:50.530Z,0.00
2018-10-06T02:16:50.519Z,0.00
2018-10-06T02:17:50.518Z,0.00
2018-10-06T02:18:50.502Z,0.00
2018-10-06T02:19:50.499Z,0.00
2018-10-06T02:20:50.493Z,0.00
2018-10-06T02:21:50.490Z,0.00
2018-10-06T02:22:50.482Z,0.00
2018-10-06T02:23:50.469Z,0.00
2018-10-06T02:24:50.469Z,0.00
2018-10-06T02:25:50.462Z,0.00
2018-10-06T02:26:50.454Z,0.00
2018-10-06T02:27:50.449Z,0.00
2018-10-06T02:28:50.440Z,0.00
2018-10-06T02:29:50.467Z,0.00
2018-10-06T02:30:50.434Z,0.00
2018-10-06T02:31:50.422Z,0.00
2018-10-06T02:32:50.423Z,0.00
2018-10-06T02:33:50.414Z,0.00
2018-10-06T02:34:50.407Z,0.00
2018-10-06T02:35:50.400Z,0.00
2018-10-06T02:36:50.454Z,0.00
2018-10-06T02:37:50.389Z,0.00
2018-10-06T02:38:50.378Z,0.00
2018-10-06T02:39:50.373Z,0.00
2018-10-06T02:40:50.362Z,0.00
2018-10-06T02:41:50.363Z,0.00
2018-10-06T02:42:50.356Z,0.00
2018-10-06T02:43:50.350Z,0.00
2018-10-06T02:44:50.344Z,0.00
2018-10-06T02:45:50.340Z,0.00
2018-10-06T02:46:50.334Z,0.00
2018-10-06T02:47:50.324Z,0.00
2018-10-06T02:48:50.314Z,0.00
2018-10-06T02:49:50.310Z,0.00
2018-10-06T02:50:50.310Z,0.00
2018-10-06T02:51:50.296Z,0.00
2018-10-06T02:52:50.293Z,0.00
2018-10-06T02:53:50.283Z,0.00
2018-10-06T02:54:50.280Z,0.00
2018-10-06T02:55:50.273Z,0.00
2018-10-06T02:56:50.263Z,0.00
2018-10-06T02:57:50.255Z,0.00
2018-10-06T02:58:50.253Z,0.00
2018-10-06T02:59:50.240Z,0.00
2018-10-06T03:00:50.240Z,0.00
2018-10-06T03:01:50.230Z,0.00
2018-10-06T03:02:50.225Z,0.00
2018-10-06T03:03:50.222Z,0.00
2018-10-06T03:04:50.218Z,0.00
2018-10-06T03:05:50.205Z,0.00
2018-10-06T03:06:50.199Z,0.00
2018-10-06T03:07:50.192Z,0.00
2018-10-06T03:08:50.189Z,0.00
2018-10-06T03:09:50.184Z,0.00
2018-10-06T03:10:50.178Z,0.00
2018-10-06T03:11:50.173Z,0.00
2018-10-06T03:12:50.165Z,0.00
2018-10-06T03:13:50.154Z,0.00
2018-10-06T03:14:50.149Z,0.00
2018-10-06T03:15:50.149Z,0.00
2018-10-06T03:16:50.144Z,0.00
2018-10-06T03:17:50.132Z,0.00
2018-10-06T03:18:50.133Z,0.00
2018-10-06T03:19:50.116Z,0.00
2018-10-06T03:20:50.108Z,0.00
2018-10-06T03:21:50.103Z,0.00
2018-10-06T03:22:50.091Z,0.00
2018-10-06T03:23:50.099Z,0.00
2018-10-06T03:24:50.084Z,0.00
2018-10-06T03:25:50.084Z,0.00
2018-10-06T03:26:50.074Z,0.00
2018-10-06T03:27:50.072Z,0.00
2018-10-06T03:29:04.622Z,0.00
2018-10-06T03:29:50.050Z,0.00
2018-10-06T03:30:50.054Z,0.00
2018-10-06T03:31:50.034Z,0.00
2018-10-06T03:32:50.027Z,0.00
2018-10-06T03:33:50.022Z,0.00
2018-10-06T03:34:50.021Z,0.00
2018-10-06T03:35:50.032Z,0.00
2018-10-06T03:36:50.003Z,0.00
2018-10-06T03:37:49.997Z,0.00
2018-10-06T03:38:49.991Z,0.00
2018-10-06T03:39:49.981Z,0.00
2018-10-06T03:40:49.975Z,0.00
2018-10-06T03:41:49.973Z,0.00
2018-10-06T03:42:49.971Z,0.00
2018-10-06T03:43:49.959Z,0.00
2018-10-06T03:44:49.952Z,0.00
2018-10-06T03:45:49.940Z,0.00
2018-10-06T03:46:49.935Z,0.00
2018-10-06T03:47:49.930Z,0.00
2018-10-06T03:48:49.924Z,0.00
2018-10-06T03:49:49.920Z,0.00
2018-10-06T03:50:49.913Z,0.00
2018-10-06T03:51:49.903Z,0.00
2018-10-06T03:52:49.895Z,0.00
2018-10-06T03:53:49.946Z,0.00
2018-10-06T03:54:49.882Z,0.00
2018-10-06T03:55:49.875Z,0.00
2018-10-06T03:56:49.878Z,0.00
2018-10-06T03:57:49.864Z,0.00
2018-10-06T03:58:49.862Z,0.00
2018-10-06T03:59:49.851Z,0.00
2018-10-06T04:00:49.844Z,0.00
2018-10-06T04:01:49.840Z,0.00
2018-10-06T04:02:49.830Z,0.00
2018-10-06T04:03:49.833Z,0.00
2018-10-06T04:04:49.815Z,0.00
2018-10-06T04:05:49.815Z,0.00
2018-10-06T04:06:49.806Z,0.00
2018-10-06T04:07:49.805Z,0.00
2018-10-06T04:08:49.787Z,0.00
2018-10-06T04:09:49.781Z,0.00
2018-10-06T04:10:49.777Z,0.00
2018-10-06T04:11:49.769Z,0.00
2018-10-06T04:12:49.765Z,0.00
2018-10-06T04:13:49.762Z,0.00
2018-10-06T04:14:49.756Z,0.00
2018-10-06T04:15:49.739Z,0.00
2018-10-06T04:16:49.741Z,0.00
2018-10-06T04:17:49.733Z,0.00
2018-10-06T04:18:49.726Z,0.00
2018-10-06T04:19:49.726Z,0.00
2018-10-06T04:20:49.716Z,0.00
2018-10-06T04:21:49.702Z,0.00
2018-10-06T04:22:49.729Z,0.00
2018-10-06T04:23:49.687Z,0.00
2018-10-06T04:24:49.681Z,0.00
2018-10-06T04:25:49.679Z,0.00
2018-10-06T04:26:49.675Z,0.00
2018-10-06T04:27:49.666Z,0.00
2018-10-06T04:28:49.657Z,0.00
2018-10-06T04:29:49.651Z,0.00
2018-10-06T04:30:49.644Z,0.00
2018-10-06T04:31:49.639Z,0.00
2018-10-06T04:32:49.631Z,0.00
2018-10-06T04:33:49.625Z,0.00
2018-10-06T04:34:49.616Z,0.00
2018-10-06T04:35:49.608Z,0.00
2018-10-06T04:36:49.604Z,0.00
2018-10-06T04:37:49.599Z,0.00
2018-10-06T04:38:49.585Z,0.00
2018-10-06T04:39:49.588Z,0.00
2018-10-06T04:40:49.579Z,0.00
2018-10-06T04:41:49.564Z,0.00
2018-10-06T04:42:49.557Z,0.00
2018-10-06T04:43:49.560Z,0.00
2018-10-06T04:44:49.544Z,0.00
2018-10-06T04:45:49.539Z,0.00
2018-10-06T04:46:49.530Z,0.00
2018-10-06T04:47:49.531Z,0.00
2018-10-06T04:48:49.523Z,0.00
2018-10-06T04:49:49.512Z,0.00
2018-10-06T04:50:49.507Z,0.00
2018-10-06T04:51:49.498Z,0.00
2018-10-06T04:52:49.493Z,0.00
2018-10-06T04:53:49.486Z,0.00
2018-10-06T04:54:49.483Z,0.00
2018-10-06T04:55:49.475Z,0.00
2018-10-06T04:56:49.470Z,0.00
2018-10-06T04:57:49.468Z,0.00
2018-10-06T04:58:49.453Z,0.00
2018-10-06T04:59:49.460Z,0.00
2018-10-06T05:00:49.438Z,0.00
2018-10-06T05:01:49.431Z,0.00
2018-10-06T05:02:49.426Z,0.00
2018-10-06T05:03:49.419Z,0.00
2018-10-06T05:04:49.411Z,0.00
2018-10-06T05:05:49.405Z,0.00
2018-10-06T05:06:49.398Z,4.00
2018-10-06T05:07:49.393Z,4.00
2018-10-06T05:08:49.386Z,0.00
2018-10-06T05:09:49.381Z,4.00
2018-10-06T05:10:49.369Z,4.00
2018-10-06T05:11:49.365Z,4.00
2018-10-06T05:12:49.355Z,4.00
2018-10-06T05:13:49.349Z,8.00
2018-10-06T05:14:49.339Z,8.00
2018-10-06T05:15:49.335Z,8.00
2018-10-06T05:16:49.326Z,8.00
2018-10-06T05:17:49.322Z,12.00
2018-10-06T05:18:49.310Z,16.00
2018-10-06T05:19:49.304Z,16.00
2018-10-06T05:20:49.299Z,20.00
2018-10-06T05:21:49.294Z,28.00
2018-10-06T05:22:49.285Z,28.00
2018-10-06T05:23:49.281Z,32.00
2018-10-06T05:24:49.288Z,40.00
2018-10-06T05:25:49.266Z,44.00
2018-10-06T05:26:49.259Z,52.00
2018-10-06T05:27:49.252Z,56.00
2018-10-06T05:28:49.243Z,64.00
2018-10-06T05:29:49.241Z,76.00
2018-10-06T05:30:49.231Z,84.00
2018-10-06T05:31:49.225Z,100.00
2018-10-06T05:32:49.215Z,112.00
2018-10-06T05:33:49.208Z,124.00
2018-10-06T05:34:49.202Z,136.00
2018-10-06T05:35:49.195Z,152.00
2018-10-06T05:36:49.191Z,172.00
2018-10-06T05:37:49.184Z,188.00
2018-10-06T05:38:49.170Z,212.00
2018-10-06T05:39:49.176Z,232.00
2018-10-06T05:40:49.155Z,256.00
2018-10-06T05:41:49.153Z,284.00
2018-10-06T05:42:49.149Z,312.00
2018-10-06T05:43:49.137Z,336.00
2018-10-06T05:44:49.131Z,368.00
2018-10-06T05:45:49.122Z,396.00
2018-10-06T05:46:49.681Z,424.00
2018-10-06T05:47:49.166Z,456.00
2018-10-06T05:48:49.105Z,488.00
2018-10-06T05:49:49.095Z,520.00
2018-10-06T05:50:49.094Z,552.00
2018-10-06T05:51:49.076Z,588.00
2018-10-06T05:52:49.074Z,624.00
2018-10-06T05:53:49.063Z,652.00
2018-10-06T05:54:49.057Z,680.00
2018-10-06T05:55:49.054Z,720.00
2018-10-06T05:56:49.046Z,756.00
2018-10-06T05:57:49.035Z,784.00
2018-10-06T05:58:49.029Z,804.00
2018-10-06T05:59:49.021Z,836.00
2018-10-06T06:00:49.012Z,880.00
2018-10-06T06:01:49.010Z,916.00
2018-10-06T06:02:49.004Z,948.00
2018-10-06T06:03:48.996Z,992.00
2018-10-06T06:04:48.989Z,1028.00
2018-10-06T06:05:48.987Z,1068.00
2018-10-06T06:06:48.971Z,1104.00
2018-10-06T06:07:48.965Z,1140.00
2018-10-06T06:08:48.957Z,1172.00
2018-10-06T06:09:48.991Z,1208.00
2018-10-06T06:10:48.947Z,1240.00
2018-10-06T06:11:48.939Z,1256.00
2018-10-06T06:12:48.935Z,1292.00
2018-10-06T06:13:48.921Z,1316.00
2018-10-06T06:14:48.914Z,1348.00
2018-10-06T06:15:48.965Z,1392.00
2018-10-06T06:16:48.902Z,1424.00
2018-10-06T06:17:48.896Z,1432.00
2018-10-06T06:18:48.889Z,1468.00
2018-10-06T06:19:48.885Z,1492.00
2018-10-06T06:20:48.873Z,1516.00
2018-10-06T06:21:48.861Z,1544.00
2018-10-06T06:22:48.863Z,1576.00
2018-10-06T06:23:48.908Z,1620.00
2018-10-06T06:24:48.847Z,1632.00
2018-10-06T06:25:48.844Z,1676.00
2018-10-06T06:26:48.832Z,1712.00
2018-10-06T06:27:48.826Z,1752.00
2018-10-06T06:28:48.820Z,1784.00
2018-10-06T06:29:48.807Z,1828.00
2018-10-06T06:30:48.879Z,1856.00
2018-10-06T06:31:48.796Z,1856.00
2018-10-06T06:32:48.787Z,1856.00
2018-10-06T06:33:48.781Z,1852.00
2018-10-06T06:34:48.775Z,1944.00
2018-10-06T06:35:48.764Z,2000.00
2018-10-06T06:36:48.762Z,2016.00
2018-10-06T06:37:48.755Z,2028.00
2018-10-06T06:38:48.749Z,2040.00
2018-10-06T06:39:48.737Z,2056.00
2018-10-06T06:40:48.732Z,2092.00
2018-10-06T06:41:48.726Z,2120.00
2018-10-06T06:42:48.719Z,2160.00
2018-10-06T06:43:48.766Z,2208.00
2018-10-06T06:44:48.696Z,2244.00
2018-10-06T06:45:48.709Z,2264.00
2018-10-06T06:46:48.690Z,2276.00
2018-10-06T06:47:48.681Z,2276.00
2018-10-06T06:48:48.677Z,2280.00
2018-10-06T06:49:48.672Z,2292.00
2018-10-06T06:50:48.661Z,2312.00
2018-10-06T06:51:48.659Z,2300.00
2018-10-06T06:52:48.644Z,2344.00
2018-10-06T06:53:48.644Z,2396.00
2018-10-06T06:54:48.641Z,2444.00
2018-10-06T06:55:48.629Z,2516.00
2018-10-06T06:56:48.619Z,2560.00
2018-10-06T06:57:48.615Z,2576.00
2018-10-06T06:58:48.603Z,2592.00
2018-10-06T06:59:48.594Z,2612.00
2018-10-06T07:00:48.601Z,2640.00
2018-10-06T07:01:48.588Z,2668.00
2018-10-06T07:02:48.576Z,2676.00
2018-10-06T07:03:48.571Z,2692.00
2018-10-06T07:04:48.569Z,2740.00
2018-10-06T07:05:48.609Z,2808.00
2018-10-06T07:06:48.549Z,2896.00
2018-10-06T07:07:48.538Z,3048.00
2018-10-06T07:08:48.538Z,2916.00
2018-10-06T07:09:48.531Z,2980.00
2018-10-06T07:10:48.523Z,3056.00
2018-10-06T07:11:48.515Z,3100.00
2018-10-06T07:12:48.510Z,3148.00
2018-10-06T07:13:48.503Z,3188.00
2018-10-06T07:14:48.492Z,3224.00
2018-10-06T07:15:48.487Z,3256.00
2018-10-06T07:16:48.483Z,3288.00
2018-10-06T07:17:48.478Z,3360.00
2018-10-06T07:18:48.472Z,3384.00
2018-10-06T07:19:48.462Z,3392.00
2018-10-06T07:20:48.450Z,3424.00
2018-10-06T07:21:48.449Z,3464.00
2018-10-06T07:22:48.437Z,3480.00
2018-10-06T07:23:48.431Z,3464.00
2018-10-06T07:24:48.452Z,3488.00
2018-10-06T07:25:48.422Z,3508.00
2018-10-06T07:26:48.408Z,3536.00
2018-10-06T07:27:48.406Z,3552.00
2018-10-06T07:28:48.400Z,3572.00
2018-10-06T07:29:48.390Z,3592.00
2018-10-06T07:30:48.385Z,3612.00
2018-10-06T07:31:48.377Z,3620.00
2018-10-06T07:32:48.371Z,3648.00
2018-10-06T07:33:48.367Z,3640.00
2018-10-06T07:34:48.364Z,3656.00
2018-10-06T07:35:48.347Z,3668.00
2018-10-06T07:36:48.345Z,3672.00
2018-10-06T07:37:48.334Z,3680.00
2018-10-06T07:38:48.327Z,3696.00
2018-10-06T07:39:48.336Z,3712.00
2018-10-06T07:40:48.319Z,3724.00
2018-10-06T07:41:48.322Z,3720.00
2018-10-06T07:42:48.305Z,3720.00
2018-10-06T07:43:48.305Z,3720.00
2018-10-06T07:44:48.319Z,3716.00
2018-10-06T07:45:48.289Z,3732.00
2018-10-06T07:46:48.281Z,3736.00
2018-10-06T07:47:48.276Z,3728.00
2018-10-06T07:48:48.266Z,3736.00
2018-10-06T07:49:48.262Z,3744.00
2018-10-06T07:50:48.250Z,3760.00
2018-10-06T07:51:48.246Z,3776.00
2018-10-06T07:52:48.238Z,3780.00
2018-10-06T07:53:48.233Z,3800.00
2018-10-06T07:54:48.223Z,3820.00
2018-10-06T07:55:48.219Z,3828.00
2018-10-06T07:56:48.244Z,3848.00
2018-10-06T07:57:48.216Z,3840.00
2018-10-06T07:58:48.222Z,3864.00
2018-10-06T07:59:48.195Z,3872.00
2018-10-06T08:00:48.185Z,3884.00
2018-10-06T08:01:48.184Z,3892.00
2018-10-06T08:02:48.174Z,3912.00
2018-10-06T08:03:48.169Z,3932.00
2018-10-06T08:04:48.160Z,3944.00
2018-10-06T08:05:48.160Z,3952.00
2018-10-06T08:06:48.144Z,3968.00
2018-10-06T08:07:48.147Z,3976.00
2018-10-06T08:08:48.136Z,3992.00
2018-10-06T08:09:48.133Z,3996.00
2018-10-06T08:10:48.120Z,4012.00
2018-10-06T08:11:48.121Z,4032.00
2018-10-06T08:12:48.111Z,4048.00
2018-10-06T08:13:48.111Z,4100.00
2018-10-06T08:14:48.099Z,4156.00
2018-10-06T08:15:48.098Z,4112.00
2018-10-06T08:16:48.088Z,4068.00
2018-10-06T08:17:48.082Z,4136.00
2018-10-06T08:18:48.072Z,4100.00
2018-10-06T08:19:48.070Z,4084.00
2018-10-06T08:20:48.063Z,4080.00
2018-10-06T08:21:48.059Z,4084.00
2018-10-06T08:22:48.049Z,4092.00
2018-10-06T08:23:48.051Z,4128.00
2018-10-06T08:24:48.039Z,4184.00
2018-10-06T08:25:48.036Z,4176.00
2018-10-06T08:26:48.027Z,4164.00
2018-10-06T08:27:48.028Z,4168.00
2018-10-06T08:28:48.027Z,4180.00
2018-10-06T08:29:48.013Z,4176.00
2018-10-06T08:30:48.007Z,4188.00
2018-10-06T08:31:48.002Z,4212.00
2018-10-06T08:32:48.001Z,4280.00
2018-10-06T08:33:47.988Z,4584.00
2018-10-06T08:34:47.981Z,4404.00
2018-10-06T08:35:47.982Z,4452.00
2018-10-06T08:36:47.972Z,5212.00
2018-10-06T08:37:47.971Z,7460.00
2018-10-06T08:38:47.962Z,7512.00
2018-10-06T08:39:47.956Z,8720.00
2018-10-06T08:40:47.950Z,14704.00
2018-10-06T08:41:47.949Z,14432.00
2018-10-06T08:42:47.990Z,9260.00
2018-10-06T08:43:47.938Z,16960.00
2018-10-06T08:44:47.934Z,30560.00
2018-10-06T08:45:47.926Z,36032.00
2018-10-06T08:46:47.927Z,35232.00
2018-10-06T08:47:47.915Z,34048.00
2018-10-06T08:48:47.908Z,34848.00
2018-10-06T08:49:47.941Z,35840.00
2018-10-06T08:50:47.902Z,36512.00
2018-10-06T08:51:47.899Z,36928.00
2018-10-06T08:52:47.893Z,37024.00
2018-10-06T08:53:47.897Z,37280.00
2018-10-06T08:54:47.891Z,37696.00
2018-10-06T08:55:47.895Z,37824.00
2018-10-06T08:56:47.895Z,37312.00
2018-10-06T08:57:47.880Z,36256.00
2018-10-06T08:58:47.888Z,37056.00
2018-10-06T08:59:47.875Z,38688.00
2018-10-06T09:00:47.874Z,38784.00
2018-10-06T09:01:47.883Z,40384.00
2018-10-06T09:02:47.889Z,40512.00
2018-10-06T09:03:47.878Z,40288.00
2018-10-06T09:04:47.878Z,38784.00
2018-10-06T09:05:47.878Z,38624.00
2018-10-06T09:06:47.879Z,39936.00
2018-10-06T09:07:47.881Z,40640.00
2018-10-06T09:08:47.882Z,40384.00
2018-10-06T09:09:47.889Z,39488.00
2018-10-06T09:10:47.933Z,38656.00
2018-10-06T09:11:48.774Z,39872.00
2018-10-06T09:12:47.882Z,41120.00
2018-10-06T09:13:47.887Z,41472.00
2018-10-06T09:14:47.897Z,41824.00
2018-10-06T09:15:47.899Z,40192.00
2018-10-06T09:16:47.895Z,40000.00
2018-10-06T09:17:47.919Z,41024.00
2018-10-06T09:18:47.905Z,40448.00
2018-10-06T09:19:47.920Z,41728.00
2018-10-06T09:20:47.917Z,43072.00
2018-10-06T09:21:47.921Z,44352.00
2018-10-06T09:22:47.928Z,45792.00
2018-10-06T09:23:47.916Z,47360.00
2018-10-06T09:24:47.922Z,47680.00
2018-10-06T09:25:47.927Z,46816.00
2018-10-06T09:26:47.928Z,47072.00
2018-10-06T09:27:47.935Z,47808.00
2018-10-06T09:28:47.945Z,48000.00
2018-10-06T09:29:47.944Z,48480.00
2018-10-06T09:30:47.957Z,48320.00
2018-10-06T09:31:47.949Z,47040.00
2018-10-06T09:32:47.953Z,47424.00
2018-10-06T09:33:47.953Z,48576.00
2018-10-06T09:34:47.958Z,47520.00
2018-10-06T09:35:47.966Z,48160.00
2018-10-06T09:36:47.967Z,49536.00
2018-10-06T09:37:47.963Z,50624.00
2018-10-06T09:38:47.978Z,50752.00
2018-10-06T09:39:47.987Z,50560.00
2018-10-06T09:40:47.997Z,50336.00
2018-10-06T09:41:48.029Z,50880.00
2018-10-06T09:42:48.125Z,52480.00
2018-10-06T09:43:47.994Z,50976.00
2018-10-06T09:44:47.997Z,51072.00
2018-10-06T09:45:48.001Z,53472.00
2018-10-06T09:46:48.007Z,54688.00
2018-10-06T09:47:48.014Z,54496.00
2018-10-06T09:48:48.020Z,54208.00
2018-10-06T09:49:48.022Z,54112.00
2018-10-06T09:50:48.028Z,54464.00
2018-10-06T09:51:48.032Z,53984.00
2018-10-06T09:52:48.038Z,53312.00
2018-10-06T09:53:48.159Z,53888.00
2018-10-06T09:54:48.045Z,53280.00
2018-10-06T09:55:48.050Z,53664.00
2018-10-06T09:56:48.059Z,53664.00
2018-10-06T09:57:48.063Z,54048.00
2018-10-06T09:58:48.068Z,53504.00
2018-10-06T09:59:48.076Z,54368.00
2018-10-06T10:00:48.074Z,56224.00
2018-10-06T10:01:48.080Z,57248.00
2018-10-06T10:02:48.088Z,57312.00
2018-10-06T10:03:48.088Z,56672.00
2018-10-06T10:04:48.098Z,57280.00
2018-10-06T10:05:48.158Z,56704.00
2018-10-06T10:06:48.109Z,56896.00
2018-10-06T10:07:48.111Z,57568.00
2018-10-06T10:08:48.115Z,56672.00
2018-10-06T10:09:48.144Z,56224.00
2018-10-06T10:10:48.153Z,56480.00
2018-10-06T10:11:48.133Z,56512.00
2018-10-06T10:12:48.227Z,56544.00
2018-10-06T10:13:48.141Z,57440.00
2018-10-06T10:14:48.149Z,57504.00
2018-10-06T10:15:48.153Z,56800.00
2018-10-06T10:16:48.158Z,57504.00
2018-10-06T10:17:48.252Z,57440.00
2018-10-06T10:18:48.173Z,55808.00
2018-10-06T10:19:48.175Z,57440.00
2018-10-06T10:20:48.182Z,57664.00
2018-10-06T10:21:48.295Z,56864.00
2018-10-06T10:22:48.215Z,60128.00
2018-10-06T10:23:48.278Z,60320.00
2018-10-06T10:24:48.203Z,40352.00
2018-10-06T10:25:48.214Z,59456.00
2018-10-06T10:26:48.215Z,61376.00
2018-10-06T10:27:48.216Z,60480.00
2018-10-06T10:28:48.256Z,59456.00
2018-10-06T10:29:48.238Z,56672.00
2018-10-06T10:30:48.237Z,56576.00
2018-10-06T10:31:48.239Z,55936.00
2018-10-06T10:32:48.244Z,57664.00
2018-10-06T10:33:48.254Z,59712.00
2018-10-06T10:34:48.262Z,59328.00
2018-10-06T10:35:48.274Z,58880.00
2018-10-06T10:36:48.268Z,60896.00
2018-10-06T10:37:48.273Z,62944.00
2018-10-06T10:38:48.281Z,60544.00
2018-10-06T10:39:48.387Z,58528.00
2018-10-06T10:40:48.310Z,58336.00
2018-10-06T10:41:48.298Z,60672.00
2018-10-06T10:42:48.302Z,61056.00
2018-10-06T10:43:48.337Z,59680.00
2018-10-06T10:44:48.314Z,58304.00
2018-10-06T10:45:48.327Z,56704.00
2018-10-06T10:46:48.329Z,56640.00
2018-10-06T10:47:48.329Z,61280.00
2018-10-06T10:48:48.346Z,59104.00
2018-10-06T10:49:48.342Z,57472.00
2018-10-06T10:50:48.443Z,58528.00
2018-10-06T10:51:48.355Z,59328.00
2018-10-06T10:52:48.364Z,57120.00
2018-10-06T10:53:48.365Z,50656.00
2018-10-06T10:54:48.376Z,48704.00
2018-10-06T10:55:48.381Z,61120.00
2018-10-06T10:56:48.387Z,61408.00
2018-10-06T10:57:48.428Z,61632.00
2018-10-06T10:58:48.395Z,60544.00
2018-10-06T10:59:48.568Z,57792.00
2018-10-06T11:00:48.414Z,57504.00
2018-10-06T11:01:48.420Z,58048.00
2018-10-06T11:02:48.417Z,57664.00
2018-10-06T11:03:48.461Z,57056.00
2018-10-06T11:04:48.484Z,54912.00
2018-10-06T11:05:48.440Z,53504.00
2018-10-06T11:06:48.442Z,54496.00
2018-10-06T11:07:48.449Z,54944.00
2018-10-06T11:08:48.454Z,55392.00
2018-10-06T11:09:48.463Z,57472.00
2018-10-06T11:10:48.467Z,56064.00
2018-10-06T11:11:48.475Z,53696.00
2018-10-06T11:12:48.482Z,53824.00
2018-10-06T11:13:48.485Z,54688.00
2018-10-06T11:14:48.490Z,54944.00
2018-10-06T11:15:48.498Z,47584.00
2018-10-06T11:16:48.505Z,48608.00
2018-10-06T11:17:48.511Z,48224.00
2018-10-06T11:18:48.512Z,52192.00
2018-10-06T11:19:48.524Z,53440.00
2018-10-06T11:20:48.530Z,53216.00
2018-10-06T11:21:48.536Z,56800.00
2018-10-06T11:22:48.539Z,57856.00
2018-10-06T11:23:48.547Z,56064.00
2018-10-06T11:24:48.581Z,55328.00
2018-10-06T11:25:48.558Z,54880.00
2018-10-06T11:26:48.563Z,55680.00
2018-10-06T11:27:48.571Z,55680.00
2018-10-06T11:28:48.569Z,54528.00
2018-10-06T11:29:48.583Z,52032.00
2018-10-06T11:30:48.594Z,52480.00
2018-10-06T11:31:48.587Z,51520.00
2018-10-06T11:32:48.601Z,54016.00
2018-10-06T11:33:48.602Z,51520.00
2018-10-06T11:34:48.612Z,46720.00
2018-10-06T11:35:48.617Z,53824.00
2018-10-06T11:36:48.626Z,53152.00
2018-10-06T11:37:48.884Z,53248.00
2018-10-06T11:38:48.638Z,50784.00
2018-10-06T11:39:48.640Z,49216.00
2018-10-06T11:40:48.648Z,51456.00
2018-10-06T11:41:48.655Z,57536.00
2018-10-06T11:42:48.661Z,58592.00
2018-10-06T11:43:48.664Z,50080.00
2018-10-06T11:44:48.675Z,59552.00
2018-10-06T11:45:48.680Z,52832.00
2018-10-06T11:46:48.681Z,52320.00
2018-10-06T11:47:48.686Z,57312.00
2018-10-06T11:48:48.698Z,59744.00
2018-10-06T11:49:48.755Z,62688.00
2018-10-06T11:50:48.702Z,61760.00
2018-10-06T11:51:48.710Z,46560.00
2018-10-06T11:52:48.714Z,51392.00
2018-10-06T11:53:48.724Z,49408.00
2018-10-06T11:54:48.725Z,49760.00
2018-10-06T11:55:48.727Z,48800.00
2018-10-06T11:56:48.734Z,47584.00
2018-10-06T11:57:48.740Z,45056.00
2018-10-06T11:58:48.746Z,46528.00
2018-10-06T11:59:48.784Z,50688.00
2018-10-06T12:00:48.845Z,52544.00
2018-10-06T12:01:48.768Z,52000.00
2018-10-06T12:02:48.770Z,48576.00
2018-10-06T12:03:48.775Z,55648.00
2018-10-06T12:04:48.786Z,57568.00
2018-10-06T12:05:48.795Z,55392.00
2018-10-06T12:06:48.790Z,48288.00
2018-10-06T12:07:48.790Z,53760.00
2018-10-06T12:08:48.794Z,58592.00
2018-10-06T12:09:48.800Z,61120.00
2018-10-06T12:10:48.813Z,57216.00
2018-10-06T12:11:48.816Z,55360.00
2018-10-06T12:12:48.822Z,52640.00
2018-10-06T12:13:48.825Z,56416.00
2018-10-06T12:14:48.823Z,57632.00
2018-10-06T12:15:48.833Z,59456.00
2018-10-06T12:16:48.841Z,54496.00
2018-10-06T12:17:48.846Z,56768.00
2018-10-06T12:18:48.848Z,54912.00
2018-10-06T12:19:48.860Z,54944.00
2018-10-06T12:20:48.864Z,55360.00
2018-10-06T12:21:48.868Z,51776.00
2018-10-06T12:22:48.872Z,48768.00
2018-10-06T12:23:48.868Z,46080.00
2018-10-06T12:24:48.880Z,51968.00
2018-10-06T12:25:48.885Z,53376.00
2018-10-06T12:26:48.886Z,53408.00
2018-10-06T12:27:48.900Z,56448.00
2018-10-06T12:28:48.896Z,54560.00
2018-10-06T12:29:48.902Z,53312.00